Time;durP1;ratioP1;P1;durP2;ratioP2;P2;SDS_P1;SDS_P2;PMS_P1;PMS_P2;Temp;Humidity;BMP_temperature;BMP_pressure;BME280_temperature;BME280_humidity;BME280_pressure;Samples;Min_cycle;Max_cycle;Signal;HPM_P1;HPM_P2
2021/04/20 00:01:23;;;;;;;3.90;1.97;;;24.10;35.70;;;;;;5156788;27;20447;-39
2021/04/20 00:03:53;;;;;;;2.43;1.70;;;24.00;36.60;;;;;;5167250;27;20443;-37
2021/04/20 00:06:23;;;;;;;4.60;1.70;;;24.00;36.60;;;;;;5161472;27;20512;-40
2021/04/20 00:08:53;;;;;;;2.90;1.40;;;23.90;35.70;;;;;;5147163;27;20457;-37
2021/04/20 00:11:23;;;;;;;3.33;1.73;;;23.80;36.50;;;;;;5145377;27;20481;-40
2021/04/20 00:13:55;;;;;;;3.93;2.17;;;23.70;35.80;;;;;;5151905;27;20478;-40
2021/04/20 00:16:25;;;;;;;2.77;1.80;;;23.60;36.70;;;;;;5146476;27;20441;-37
2021/04/20 00:18:55;;;;;;;5.80;2.00;;;23.40;36.40;;;;;;5152841;27;20433;-39
2021/04/20 00:21:25;;;;;;;4.87;2.00;;;23.40;36.70;;;;;;5146267;27;20444;-39
2021/04/20 00:23:56;;;;;;;4.90;2.30;;;23.30;37.20;;;;;;5146273;27;20501;-39
2021/04/20 00:26:26;;;;;;;6.00;1.87;;;23.20;36.40;;;;;;5155516;27;20563;-37
2021/04/20 00:28:57;;;;;;;3.13;2.10;;;23.20;36.30;;;;;;5167095;27;20450;-39
2021/04/20 00:31:27;;;;;;;6.57;2.10;;;23.20;37.20;;;;;;5167316;27;20481;-37
2021/04/20 00:33:57;;;;;;;3.57;2.30;;;23.20;38.00;;;;;;5166153;27;20489;-39
2021/04/20 00:36:27;;;;;;;2.87;1.87;;;23.20;36.90;;;;;;5163594;27;20448;-36
2021/04/20 00:38:57;;;;;;;4.33;2.40;;;23.10;36.50;;;;;;5165650;27;20455;-38
2021/04/20 00:41:28;;;;;;;4.73;2.20;;;23.00;36.70;;;;;;5165010;27;20448;-39
2021/04/20 00:44:00;;;;;;;4.87;2.30;;;22.80;35.50;;;;;;5167685;27;20437;-37
2021/04/20 00:46:30;;;;;;;3.43;2.23;;;22.70;36.30;;;;;;5163561;27;20440;-38
2021/04/20 00:49:00;;;;;;;4.97;2.13;;;22.70;37.00;;;;;;5166441;27;20529;-38
2021/04/20 00:51:30;;;;;;;3.37;1.73;;;22.50;36.90;;;;;;5165152;27;20501;-40
2021/04/20 00:54:00;;;;;;;2.57;2.23;;;22.50;38.50;;;;;;5165921;27;20452;-38
2021/04/20 00:56:30;;;;;;;5.57;2.20;;;22.60;37.80;;;;;;5166289;27;20454;-38
2021/04/20 00:59:03;;;;;;;4.60;2.80;;;22.30;36.50;;;;;;5167104;27;20436;-38
2021/04/20 01:01:34;;;;;;;6.30;2.30;;;22.40;38.30;;;;;;5166349;27;20436;-38
2021/04/20 01:04:05;;;;;;;2.50;1.80;;;22.30;37.60;;;;;;5167212;27;20444;-41
2021/04/20 01:06:35;;;;;;;3.77;2.13;;;22.20;36.90;;;;;;5166943;27;20440;-36
2021/04/20 01:09:07;;;;;;;3.83;2.60;;;22.20;37.90;;;;;;5164834;27;20489;-40
2021/04/20 01:11:38;;;;;;;2.20;2.00;;;22.10;38.20;;;;;;5163267;27;20452;-39
2021/04/20 01:14:10;;;;;;;4.93;2.50;;;22.10;37.50;;;;;;5146846;27;20437;-39
2021/04/20 01:16:40;;;;;;;2.00;1.80;;;22.10;38.00;;;;;;5146294;27;20429;-38
2021/04/20 01:19:16;;;;;;;5.13;2.47;;;22.00;38.40;;;;;;5166772;27;20455;-37
2021/04/20 01:21:50;;;;;;;2.60;1.80;;;22.00;38.30;;;;;;5166298;27;20451;-38
2021/04/20 01:24:25;;;;;;;5.63;2.33;;;21.80;37.80;;;;;;5160383;27;20474;-38
2021/04/20 01:26:56;;;;;;;6.30;2.17;;;21.60;37.30;;;;;;5144921;27;20458;-38
2021/04/20 01:29:27;;;;;;;5.50;2.43;;;21.50;37.30;;;;;;5146078;27;20429;-38
2021/04/20 01:31:57;;;;;;;1.97;1.60;;;21.40;37.30;;;;;;5156259;27;20459;-39
2021/04/20 01:34:27;;;;;;;3.50;1.73;;;21.30;37.80;;;;;;5165493;27;20458;-38
2021/04/20 01:36:57;;;;;;;2.43;1.87;;;21.20;38.10;;;;;;5154561;27;20428;-39
2021/04/20 01:39:28;;;;;;;4.67;2.43;;;21.20;38.70;;;;;;5156771;27;20456;-37
2021/04/20 01:42:00;;;;;;;5.20;2.30;;;21.20;38.80;;;;;;5150985;27;20502;-38
2021/04/20 01:44:30;;;;;;;4.07;2.30;;;21.20;37.90;;;;;;5165830;27;20473;-38
2021/04/20 01:47:00;;;;;;;2.17;2.00;;;21.10;38.40;;;;;;5155968;27;20481;-36
2021/04/20 01:49:30;;;;;;;4.00;2.10;;;21.10;38.40;;;;;;5163055;27;20448;-36
2021/04/20 01:52:00;;;;;;;2.70;2.40;;;21.00;39.70;;;;;;5158481;27;20440;-38
2021/04/20 01:54:32;;;;;;;3.87;2.10;;;20.90;38.60;;;;;;5148277;27;20457;-37
2021/04/20 01:57:03;;;;;;;3.70;2.20;;;20.90;39.70;;;;;;5153568;27;20516;-36
2021/04/20 01:59:35;;;;;;;2.90;2.20;;;20.90;39.10;;;;;;5166552;27;20477;-33
2021/04/20 02:02:05;;;;;;;2.80;1.93;;;20.80;39.10;;;;;;5165439;27;20440;-38
2021/04/20 02:04:36;;;;;;;2.30;2.10;;;20.70;38.50;;;;;;5166264;27;20440;-37
2021/04/20 02:07:06;;;;;;;4.00;2.47;;;20.60;38.50;;;;;;5163956;27;20450;-37
2021/04/20 02:09:38;;;;;;;3.90;1.80;;;20.60;38.90;;;;;;5148383;27;20825;-36
2021/04/20 02:12:08;;;;;;;5.10;2.23;;;20.50;40.00;;;;;;5158017;27;20436;-40
2021/04/20 02:14:39;;;;;;;2.30;2.10;;;20.50;39.90;;;;;;5163804;27;20461;-39
2021/04/20 02:17:09;;;;;;;2.80;2.07;;;20.40;39.80;;;;;;5163812;27;20422;-40
2021/04/20 02:19:40;;;;;;;3.57;2.23;;;20.40;39.60;;;;;;5161642;27;20865;-35
2021/04/20 02:22:11;;;;;;;7.90;2.47;;;20.30;40.20;;;;;;5163124;27;20561;-38
2021/04/20 02:24:42;;;;;;;4.97;2.27;;;20.20;40.80;;;;;;5157097;27;20954;-37
2021/04/20 02:27:13;;;;;;;4.00;2.00;;;20.00;40.90;;;;;;5157719;27;20555;-38
2021/04/20 02:29:44;;;;;;;4.37;1.90;;;20.00;40.40;;;;;;5165741;27;20447;-36
2021/04/20 02:32:15;;;;;;;3.40;1.90;;;19.90;40.10;;;;;;5164138;27;20448;-38
2021/04/20 02:34:45;;;;;;;2.43;2.07;;;19.80;40.80;;;;;;5164244;27;20444;-35
2021/04/20 02:37:17;;;;;;;2.70;2.07;;;19.70;41.90;;;;;;5148429;27;20422;-36
2021/04/20 02:39:50;;;;;;;3.90;2.50;;;19.60;42.20;;;;;;5165564;27;20955;-31
2021/04/20 02:42:21;;;;;;;4.13;2.60;;;19.60;42.20;;;;;;5157108;27;20476;-38
2021/04/20 02:44:52;;;;;;;3.37;2.03;;;19.60;41.30;;;;;;5165273;27;20471;-36
2021/04/20 02:47:22;;;;;;;2.97;2.40;;;19.60;42.30;;;;;;5156722;27;20977;-39
2021/04/20 02:49:52;;;;;;;2.83;1.90;;;19.50;42.10;;;;;;5164104;27;20447;-37
2021/04/20 02:52:23;;;;;;;2.83;2.10;;;19.40;41.20;;;;;;5164475;27;20443;-38
2021/04/20 02:54:54;;;;;;;3.87;2.03;;;19.30;42.30;;;;;;5165140;27;20448;-34
2021/04/20 02:57:25;;;;;;;3.77;2.10;;;19.20;42.10;;;;;;5163463;27;20440;-37
2021/04/20 02:59:56;;;;;;;2.60;2.33;;;19.10;43.00;;;;;;5165288;27;20422;-34
2021/04/20 03:02:28;;;;;;;4.47;2.57;;;19.10;42.10;;;;;;5164704;27;20456;-38
2021/04/20 03:04:58;;;;;;;5.10;2.87;;;19.00;42.90;;;;;;5161842;27;20438;-38
2021/04/20 03:07:28;;;;;;;4.40;2.73;;;18.90;43.30;;;;;;5154809;27;20447;-37
2021/04/20 03:10:00;;;;;;;5.03;2.43;;;18.80;44.30;;;;;;5164072;27;20982;-38
2021/04/20 03:12:30;;;;;;;5.30;2.83;;;18.80;44.00;;;;;;5163496;27;20921;-38
2021/04/20 03:15:01;;;;;;;4.47;2.93;;;18.70;44.90;;;;;;5164720;27;20426;-38
2021/04/20 03:17:32;;;;;;;3.20;2.50;;;18.60;44.80;;;;;;5163566;27;20957;-35
2021/04/20 03:20:02;;;;;;;3.10;2.20;;;18.50;44.70;;;;;;5164817;27;20439;-35
2021/04/20 03:22:32;;;;;;;6.20;2.83;;;18.60;44.30;;;;;;5164293;27;20971;-36
2021/04/20 03:25:20;;;;;;;4.90;3.23;;;18.50;44.40;;;;;;5164770;27;20512;-36
2021/04/20 03:27:53;;;;;;;6.67;2.63;;;18.50;44.80;;;;;;5166773;27;20466;-35
2021/04/20 03:30:28;;;;;;;3.93;2.53;;;18.40;44.40;;;;;;5169309;27;20428;-37
2021/04/20 03:33:06;;;;;;;4.53;3.17;;;18.40;43.80;;;;;;5167576;27;20504;-38
2021/04/20 03:35:46;;;;;;;5.40;3.00;;;18.20;44.00;;;;;;5164428;27;20520;-39
2021/04/20 03:38:23;;;;;;;3.10;2.80;;;18.20;45.00;;;;;;5168046;27;20443;-36
2021/04/20 03:41:02;;;;;;;3.10;2.20;;;18.10;45.40;;;;;;5162643;27;20410;-38
2021/04/20 03:43:35;;;;;;;3.13;2.67;;;18.00;44.50;;;;;;5166921;27;20526;-36
2021/04/20 03:46:10;;;;;;;4.10;3.00;;;18.00;44.60;;;;;;5166208;27;20407;-37
2021/04/20 03:48:45;;;;;;;4.30;2.50;;;18.00;45.30;;;;;;5168526;27;20467;-38
2021/04/20 03:51:17;;;;;;;4.60;2.57;;;17.80;44.90;;;;;;5167141;27;20421;-35
2021/04/20 03:53:50;;;;;;;3.70;2.40;;;17.80;45.80;;;;;;5167437;27;20448;-39
2021/04/20 03:56:26;;;;;;;2.80;2.60;;;17.70;45.20;;;;;;5167443;27;20430;-36
2021/04/20 03:59:00;;;;;;;3.00;2.23;;;17.60;44.70;;;;;;5167423;27;20512;-37
2021/04/20 04:01:34;;;;;;;3.40;2.27;;;17.50;44.60;;;;;;5167504;27;20403;-38
2021/04/20 04:04:04;;;;;;;2.87;2.33;;;17.50;45.70;;;;;;5167624;27;20436;-38
2021/04/20 04:06:38;;;;;;;2.77;2.30;;;17.40;46.10;;;;;;5167358;27;20443;-37
2021/04/20 04:09:09;;;;;;;2.60;2.13;;;17.30;46.40;;;;;;5165522;27;20486;-38
2021/04/20 04:11:46;;;;;;;3.07;2.30;;;17.30;45.30;;;;;;5155160;27;20483;-38
2021/04/20 04:14:18;;;;;;;4.93;2.20;;;17.20;47.30;;;;;;5166739;27;20488;-34
2021/04/20 04:16:50;;;;;;;3.50;2.10;;;17.10;46.10;;;;;;5166599;27;20960;-35
2021/04/20 04:19:22;;;;;;;2.30;2.10;;;17.00;47.20;;;;;;5168305;27;20508;-37
2021/04/20 04:22:03;;;;;;;2.30;2.10;;;16.90;48.00;;;;;;5166938;27;20444;-34
2021/04/20 04:24:38;;;;;;;2.87;2.30;;;16.80;48.60;;;;;;5164999;27;20444;-36
2021/04/20 04:27:14;;;;;;;2.47;2.13;;;16.70;49.10;;;;;;5165755;27;20451;-36
2021/04/20 04:29:46;;;;;;;4.10;2.60;;;16.50;49.30;;;;;;5166769;27;20444;-38
2021/04/20 04:32:18;;;;;;;4.17;2.70;;;16.50;49.00;;;;;;5167340;27;20484;-34
2021/04/20 04:34:49;;;;;;;2.80;2.60;;;16.50;49.60;;;;;;5167329;27;20893;-38
2021/04/20 04:37:20;;;;;;;4.23;3.03;;;16.40;50.30;;;;;;5165915;27;20564;-37
2021/04/20 04:39:51;;;;;;;5.60;2.53;;;16.30;50.10;;;;;;5167020;27;20447;-37
2021/04/20 04:42:24;;;;;;;2.80;2.60;;;16.20;50.70;;;;;;5166051;27;20475;-38
2021/04/20 04:44:54;;;;;;;4.27;2.87;;;16.10;51.00;;;;;;5166537;27;20459;-37
2021/04/20 04:47:24;;;;;;;4.27;2.87;;;16.10;51.70;;;;;;5166051;27;20543;-38
2021/04/20 04:50:00;;;;;;;2.40;2.20;;;16.00;52.60;;;;;;5165971;27;20451;-35
2021/04/20 04:52:31;;;;;;;3.90;3.00;;;15.90;52.60;;;;;;5157354;27;20550;-36
2021/04/20 04:55:01;;;;;;;2.20;2.00;;;15.90;52.70;;;;;;5165856;27;20448;-37
2021/04/20 04:57:33;;;;;;;5.53;2.60;;;15.80;52.50;;;;;;5165312;27;20448;-38
2021/04/20 05:00:06;;;;;;;2.97;2.77;;;15.80;51.90;;;;;;5165008;27;20448;-36
2021/04/20 05:02:37;;;;;;;3.10;2.60;;;15.90;50.50;;;;;;5160969;27;20453;-39
2021/04/20 05:05:09;;;;;;;2.40;2.20;;;15.80;49.70;;;;;;5161526;27;20447;-36
2021/04/20 05:07:40;;;;;;;4.13;2.90;;;15.80;51.50;;;;;;5164638;27;20484;-38
2021/04/20 05:10:13;;;;;;;3.10;2.23;;;15.70;49.50;;;;;;5164261;27;20459;-38
2021/04/20 05:12:45;;;;;;;3.77;3.10;;;15.80;50.50;;;;;;5164235;27;20470;-36
2021/04/20 05:15:16;;;;;;;8.77;2.70;;;15.90;48.10;;;;;;5164876;27;20477;-37
2021/04/20 05:17:46;;;;;;;2.77;2.57;;;15.80;49.00;;;;;;5164772;27;20432;-35
2021/04/20 05:20:20;;;;;;;5.13;2.23;;;15.80;48.60;;;;;;5166566;27;20444;-35
2021/04/20 05:22:55;;;;;;;2.43;1.90;;;15.90;49.00;;;;;;5164188;27;20812;-38
2021/04/20 05:25:25;;;;;;;2.60;1.90;;;15.90;46.40;;;;;;5166282;27;20447;-39
2021/04/20 05:27:57;;;;;;;3.70;2.27;;;16.00;46.00;;;;;;5164104;27;20476;-37
2021/04/20 05:30:27;;;;;;;3.30;2.13;;;16.00;47.00;;;;;;5165222;27;20508;-37
2021/04/20 05:33:00;;;;;;;3.30;2.10;;;16.00;46.60;;;;;;5165825;27;20451;-38
2021/04/20 05:35:30;;;;;;;1.70;1.60;;;16.00;44.80;;;;;;5165675;27;20459;-35
2021/04/20 05:38:00;;;;;;;3.63;2.10;;;16.00;46.60;;;;;;5165410;27;20500;-36
2021/04/20 05:40:31;;;;;;;2.77;1.90;;;16.10;46.30;;;;;;5165802;27;20470;-35
2021/04/20 05:43:03;;;;;;;4.60;2.83;;;16.00;46.20;;;;;;5164734;27;20475;-37
2021/04/20 05:45:34;;;;;;;4.50;1.90;;;16.00;46.00;;;;;;5165151;27;20419;-34
2021/04/20 05:48:04;;;;;;;3.83;2.30;;;16.00;46.40;;;;;;5164674;27;20467;-37
2021/04/20 05:50:34;;;;;;;2.63;2.23;;;15.90;46.20;;;;;;5164456;27;20440;-37
2021/04/20 05:53:04;;;;;;;5.97;2.30;;;15.80;47.00;;;;;;5165293;27;20516;-35
2021/04/20 05:55:34;;;;;;;3.50;2.10;;;15.80;48.10;;;;;;5165157;27;20508;-36
2021/04/20 05:58:06;;;;;;;3.30;2.10;;;15.80;46.30;;;;;;5163553;27;20562;-37
2021/04/20 06:00:36;;;;;;;11.50;2.63;;;15.80;46.00;;;;;;5165796;27;20448;-36
2021/04/20 06:03:06;;;;;;;5.30;2.30;;;15.80;46.60;;;;;;5165575;27;20436;-35
2021/04/20 06:05:37;;;;;;;3.57;2.07;;;15.70;46.50;;;;;;5165171;27;20440;-37
2021/04/20 06:08:07;;;;;;;5.63;2.20;;;15.70;47.20;;;;;;5164845;27;20472;-37
2021/04/20 06:10:39;;;;;;;2.20;1.93;;;15.60;47.90;;;;;;5164536;27;20518;-34
2021/04/20 06:13:12;;;;;;;2.90;2.07;;;15.50;47.00;;;;;;5164422;27;20447;-33
2021/04/20 06:15:42;;;;;;;5.37;2.23;;;15.50;48.60;;;;;;5163297;27;20444;-36
2021/04/20 06:18:13;;;;;;;3.97;1.90;;;15.40;48.30;;;;;;5164888;27;20470;-37
2021/04/20 06:20:43;;;;;;;4.20;2.00;;;15.30;50.20;;;;;;5164769;27;20448;-37
2021/04/20 06:23:14;;;;;;;2.70;2.23;;;15.30;50.10;;;;;;5164852;27;20448;-36
2021/04/20 06:25:45;;;;;;;5.97;2.67;;;15.20;50.70;;;;;;5164176;27;20452;-35
2021/04/20 06:28:17;;;;;;;2.77;2.33;;;15.10;50.60;;;;;;5163967;27;21011;-33
2021/04/20 06:30:47;;;;;;;2.43;2.27;;;15.10;51.10;;;;;;5156465;27;20533;-35
2021/04/20 06:33:18;;;;;;;4.40;2.00;;;15.10;50.00;;;;;;5164661;27;20444;-35
2021/04/20 06:35:48;;;;;;;6.60;2.33;;;15.00;50.30;;;;;;5164351;27;20452;-37
2021/04/20 06:38:19;;;;;;;2.70;2.50;;;15.00;52.70;;;;;;5164414;27;20455;-36
2021/04/20 06:40:52;;;;;;;2.87;2.67;;;14.90;52.70;;;;;;5164284;27;20454;-34
2021/04/20 06:43:29;;;;;;;7.17;3.00;;;14.80;51.90;;;;;;5163293;27;20483;-35
2021/04/20 06:46:04;;;;;;;3.83;2.20;;;14.70;52.10;;;;;;5163805;27;20448;-36
2021/04/20 06:48:42;;;;;;;4.10;2.30;;;14.70;52.50;;;;;;5162353;27;20475;-37
2021/04/20 06:51:17;;;;;;;4.20;2.57;;;14.70;53.80;;;;;;5163839;27;20529;-37
2021/04/20 06:53:51;;;;;;;3.53;2.40;;;14.60;53.70;;;;;;5164714;27;20447;-37
2021/04/20 06:56:29;;;;;;;3.00;2.80;;;14.60;53.80;;;;;;5162948;27;20440;-37
2021/04/20 06:59:10;;;;;;;4.90;2.53;;;14.50;54.20;;;;;;5164964;27;20426;-36
2021/04/20 07:01:44;;;;;;;3.67;2.63;;;14.50;54.80;;;;;;5162984;27;20530;-36
2021/04/20 07:04:19;;;;;;;5.33;3.00;;;14.50;55.70;;;;;;5163984;27;20435;-39
2021/04/20 07:07:10;;;;;;;5.67;2.70;;;14.40;56.30;;;;;;5161317;27;20538;-38
2021/04/20 07:09:44;;;;;;;2.70;2.50;;;14.40;55.30;;;;;;5164213;27;20468;-37
2021/04/20 07:12:17;;;;;;;4.80;2.90;;;14.20;54.50;;;;;;5163411;27;20511;-37
2021/04/20 07:14:51;;;;;;;3.77;2.77;;;14.20;55.70;;;;;;5164305;27;20473;-36
2021/04/20 07:18:08;;;;;;;5.67;4.10;;;14.10;55.00;;;;;;5160694;27;20971;-35
2021/04/20 07:20:52;;;;;;;3.63;3.33;;;14.00;55.90;;;;;;5069559;28;20525;-35
2021/04/20 07:23:55;;;;;;;5.00;3.27;;;13.90;55.70;;;;;;5068823;28;20448;-37
2021/04/20 07:26:47;;;;;;;7.10;3.50;;;13.80;56.10;;;;;;5072075;28;20480;-37
2021/04/20 07:29:49;;;;;;;3.20;3.00;;;13.70;56.60;;;;;;5079679;28;20546;-37
2021/04/20 07:32:34;;;;;;;6.00;3.57;;;13.70;57.10;;;;;;5073069;28;20443;-31
2021/04/20 07:35:15;;;;;;;3.77;3.43;;;13.60;57.10;;;;;;5079692;28;20470;-36
2021/04/20 07:37:48;;;;;;;4.27;3.87;;;13.50;58.10;;;;;;5067212;28;20474;-35
2021/04/20 07:40:34;;;;;;;3.47;3.17;;;13.50;58.40;;;;;;5071814;28;20448;-34
2021/04/20 07:43:24;;;;;;;5.07;4.57;;;13.40;59.20;;;;;;5079212;28;20475;-32
2021/04/20 07:46:01;;;;;;;4.23;3.80;;;13.30;58.90;;;;;;5078572;28;20497;-32
2021/04/20 07:48:55;;;;;;;3.77;3.37;;;13.30;59.30;;;;;;5079157;28;20487;-34
2021/04/20 07:51:33;;;;;;;8.20;4.00;;;13.20;60.10;;;;;;5080030;28;20466;-36
2021/04/20 07:54:09;;;;;;;6.57;4.00;;;13.10;61.00;;;;;;5088830;27;20459;-36
2021/04/20 07:56:45;;;;;;;4.30;3.90;;;12.90;60.50;;;;;;5162533;27;20455;-34
2021/04/20 07:59:20;;;;;;;3.80;3.50;;;12.80;60.80;;;;;;5163928;27;20451;-35
2021/04/20 08:01:56;;;;;;;7.37;3.87;;;12.80;64.40;;;;;;5163754;27;20455;-34
2021/04/20 08:04:45;;;;;;;5.80;3.90;;;12.80;66.80;;;;;;5164152;27;20443;-36
2021/04/20 08:07:24;;;;;;;4.27;3.60;;;12.70;68.30;;;;;;5158358;27;20473;-34
2021/04/20 08:09:57;;;;;;;8.70;4.73;;;12.60;70.20;;;;;;5162926;27;20484;-35
2021/04/20 08:12:29;;;;;;;7.20;4.83;;;12.60;71.50;;;;;;5161918;27;20447;-34
2021/04/20 08:15:08;;;;;;;4.97;4.50;;;12.50;75.50;;;;;;5167442;27;20452;-37
2021/04/20 08:17:45;;;;;;;5.50;5.00;;;12.50;77.40;;;;;;5166131;27;20457;-34
2021/04/20 08:20:18;;;;;;;6.57;5.10;;;12.50;80.40;;;;;;5167715;27;20585;-36
2021/04/20 08:22:52;;;;;;;5.87;5.30;;;12.50;82.80;;;;;;5167146;27;20448;-32
2021/04/20 08:25:25;;;;;;;7.83;4.93;;;12.40;85.30;;;;;;5167246;27;20448;-35
2021/04/20 08:28:01;;;;;;;5.57;5.00;;;12.40;86.60;;;;;;5165402;27;20490;-38
2021/04/20 08:30:41;;;;;;;6.10;5.20;;;12.30;89.80;;;;;;5167462;27;20458;-38
2021/04/20 08:33:14;;;;;;;8.83;5.70;;;12.30;91.30;;;;;;5164876;27;20583;-38
2021/04/20 08:35:49;;;;;;;6.13;5.53;;;12.30;93.50;;;;;;5166996;27;20830;-36
2021/04/20 08:38:37;;;;;;;7.53;6.83;;;12.20;95.20;;;;;;5166505;27;20439;-33
2021/04/20 08:41:17;;;;;;;6.03;5.43;;;12.10;96.00;;;;;;5161559;27;20464;-37
2021/04/20 08:44:00;;;;;;;7.63;5.97;;;12.10;98.50;;;;;;5166920;27;20455;-38
2021/04/20 08:46:47;;;;;;;7.63;5.80;;;12.10;99.20;;;;;;5160993;27;20552;-34
2021/04/20 08:49:25;;;;;;;7.30;6.60;;;12.00;99.90;;;;;;5167451;27;20552;-35
2021/04/20 08:52:02;;;;;;;6.83;6.27;;;12.00;99.90;;;;;;5163462;27;20486;-36
2021/04/20 08:55:03;;;;;;;7.10;5.93;;;12.00;99.90;;;;;;5166949;27;20462;-37
2021/04/20 08:57:45;;;;;;;6.97;6.37;;;11.90;99.90;;;;;;5151068;27;20447;-34
2021/04/20 09:00:17;;;;;;;6.83;6.10;;;11.90;99.90;;;;;;5157103;27;20481;-33
2021/04/20 09:02:58;;;;;;;7.67;6.80;;;11.90;99.90;;;;;;5165899;27;20484;-37
2021/04/20 09:05:44;;;;;;;7.00;6.47;;;11.80;99.90;;;;;;5161802;27;20531;-36
2021/04/20 09:08:42;;;;;;;10.10;6.87;;;11.80;99.90;;;;;;5163439;27;20533;-33
2021/04/20 09:11:16;;;;;;;7.90;7.10;;;11.80;99.90;;;;;;5158362;27;20511;-37
2021/04/20 09:14:00;;;;;;;7.33;6.60;;;11.70;99.90;;;;;;5165156;27;20439;-34
2021/04/20 09:16:39;;;;;;;7.47;6.80;;;11.70;99.90;;;;;;5165187;27;20511;-33
2021/04/20 09:19:13;;;;;;;7.03;6.37;;;11.60;99.90;;;;;;5159160;27;20791;-32
2021/04/20 09:21:54;;;;;;;7.22;6.63;;;11.50;99.90;;;;;;5165108;27;20495;-35
2021/04/20 09:24:34;;;;;;;7.67;6.93;;;11.50;99.90;;;;;;5153882;27;20671;-36
2021/04/20 09:27:11;;;;;;;7.40;6.73;;;11.40;99.90;;;;;;5156812;27;20455;-34
2021/04/20 09:29:55;;;;;;;9.10;8.13;;;11.40;99.90;;;;;;5148867;27;20526;-33
2021/04/20 09:32:35;;;;;;;8.52;7.72;;;11.30;99.90;;;;;;5165937;27;20443;-34
2021/04/20 09:35:08;;;;;;;8.07;7.28;;;11.30;99.90;;;;;;5164949;27;20193;-37
2021/04/20 09:37:40;;;;;;;7.78;7.07;;;11.30;99.90;;;;;;5163956;27;20292;-36
2021/04/20 09:40:15;;;;;;;8.10;7.50;;;11.30;99.90;;;;;;5165539;27;20198;-34
2021/04/20 09:42:52;;;;;;;9.10;7.60;;;11.30;99.90;;;;;;5165206;27;20482;-34
2021/04/20 09:45:27;;;;;;;8.37;7.60;;;11.20;99.90;;;;;;5154633;27;20440;-32
2021/04/20 09:48:09;;;;;;;8.23;7.45;;;11.20;99.90;;;;;;5164583;27;20455;-35
2021/04/20 09:50:51;;;;;;;10.93;7.45;;;11.20;99.90;;;;;;5165923;27;20223;-35
2021/04/20 09:53:34;;;;;;;8.07;7.22;;;11.20;99.90;;;;;;5165593;27;20308;-36
2021/04/20 09:56:15;;;;;;;9.52;7.57;;;11.10;99.90;;;;;;5165896;27;20206;-36
2021/04/20 09:58:48;;;;;;;8.52;7.72;;;11.10;99.90;;;;;;5165602;27;20202;-35
2021/04/20 10:01:51;;;;;;;8.40;7.60;;;11.00;99.90;;;;;;5164561;27;20222;-34
2021/04/20 10:04:48;;;;;;;7.78;7.18;;;11.00;99.90;;;;;;5165872;27;20451;-35
2021/04/20 10:07:50;;;;;;;8.00;7.30;;;11.00;99.90;;;;;;5150786;27;20266;-37
2021/04/20 10:10:30;;;;;;;8.75;7.50;;;11.00;99.90;;;;;;5165152;27;20267;-33
2021/04/20 10:13:19;;;;;;;9.13;7.68;;;10.90;99.90;;;;;;5163931;27;20209;-35
2021/04/20 10:15:57;;;;;;;9.93;7.40;;;10.90;99.90;;;;;;5160203;27;20243;-36
2021/04/20 10:18:42;;;;;;;8.23;7.53;;;10.80;99.90;;;;;;5164838;27;20471;-34
2021/04/20 10:21:27;;;;;;;8.20;7.50;;;10.80;99.90;;;;;;5165340;27;20209;-31
2021/04/20 10:24:09;;;;;;;9.25;8.38;;;10.70;99.90;;;;;;5165517;27;20436;-34
2021/04/20 10:26:45;;;;;;;8.00;7.25;;;10.60;99.90;;;;;;5163664;27;20203;-34
2021/04/20 10:29:25;;;;;;;9.88;7.63;;;10.60;99.90;;;;;;5164970;27;20224;-35
2021/04/20 10:32:00;;;;;;;9.20;8.30;;;10.60;99.90;;;;;;5164992;27;20210;-37
2021/04/20 10:34:31;;;;;;;11.80;8.30;;;10.60;99.90;;;;;;5164486;27;20194;-34
2021/04/20 10:37:01;;;;;;;8.77;8.05;;;10.60;99.90;;;;;;5156133;27;20202;-34
2021/04/20 10:39:31;;;;;;;8.30;7.45;;;10.50;99.90;;;;;;5164691;27;20194;-35
2021/04/20 10:42:02;;;;;;;9.52;8.57;;;10.40;99.90;;;;;;5161640;27;20222;-29
2021/04/20 10:44:53;;;;;;;9.63;8.63;;;10.40;99.90;;;;;;5165621;27;20195;-33
2021/04/20 10:47:23;;;;;;;10.32;8.50;;;10.40;99.90;;;;;;5164790;27;20194;-36
2021/04/20 10:49:55;;;;;;;9.23;8.50;;;10.40;99.90;;;;;;5163039;27;20257;-35
2021/04/20 10:52:29;;;;;;;9.13;8.32;;;10.40;99.90;;;;;;5160602;27;20202;-36
2021/04/20 10:55:06;;;;;;;9.68;8.75;;;10.40;99.90;;;;;;5164857;27;20198;-32
2021/04/20 10:57:40;;;;;;;8.57;7.88;;;10.30;99.90;;;;;;5163603;27;20198;-36
2021/04/20 11:00:16;;;;;;;11.82;8.70;;;10.20;99.90;;;;;;5165468;27;20202;-38
2021/04/20 11:02:50;;;;;;;9.65;8.68;;;10.10;99.90;;;;;;5164830;27;20182;-38
2021/04/20 11:05:22;;;;;;;11.60;10.07;;;10.10;99.90;;;;;;5164705;27;20317;-34
2021/04/20 11:07:53;;;;;;;9.48;8.48;;;10.00;99.90;;;;;;5164599;27;20239;-36
2021/04/20 11:10:27;;;;;;;10.52;9.43;;;9.90;99.90;;;;;;5164377;27;20654;-36
2021/04/20 11:12:57;;;;;;;12.50;11.40;;;9.90;99.90;;;;;;5163368;27;20302;-36
2021/04/20 11:15:30;;;;;;;12.23;11.13;;;9.90;99.90;;;;;;5164703;27;20208;-33
2021/04/20 11:18:09;;;;;;;12.07;11.05;;;10.00;99.90;;;;;;5161677;27;20216;-37
2021/04/20 11:20:42;;;;;;;14.35;10.77;;;10.00;99.90;;;;;;5163865;27;20199;-35
2021/04/20 11:23:21;;;;;;;11.82;10.40;;;10.00;99.90;;;;;;5154527;27;20215;-38
2021/04/20 11:26:03;;;;;;;11.70;10.70;;;10.00;99.90;;;;;;5158922;27;20289;-38
2021/04/20 11:28:41;;;;;;;11.68;10.68;;;10.00;99.90;;;;;;5163027;27;20748;-34
2021/04/20 11:31:22;;;;;;;12.23;11.13;;;10.00;99.90;;;;;;5164759;27;20661;-37
2021/04/20 11:33:58;;;;;;;11.63;10.57;;;10.00;99.90;;;;;;5164556;27;20231;-38
2021/04/20 11:36:33;;;;;;;12.23;11.13;;;10.00;99.90;;;;;;5164056;27;20209;-33
2021/04/20 11:39:06;;;;;;;13.88;11.65;;;10.00;99.90;;;;;;5163681;27;20195;-35
2021/04/20 11:41:42;;;;;;;12.05;10.95;;;9.90;99.90;;;;;;5163501;27;20353;-39
2021/04/20 11:44:14;;;;;;;11.48;10.38;;;9.90;99.90;;;;;;5164793;27;20205;-31
2021/04/20 11:46:49;;;;;;;11.80;10.57;;;9.90;99.90;;;;;;5165279;27;20203;-33
2021/04/20 11:49:23;;;;;;;12.98;11.68;;;9.90;99.90;;;;;;5168209;27;20225;-35
2021/04/20 11:51:54;;;;;;;12.38;11.25;;;9.90;99.90;;;;;;5168310;27;20228;-37
2021/04/20 11:54:28;;;;;;;14.35;11.90;;;9.90;99.90;;;;;;5167708;27;20187;-34
2021/04/20 11:57:01;;;;;;;13.40;12.10;;;9.80;99.90;;;;;;5160423;27;20218;-33
2021/04/20 11:59:33;;;;;;;12.27;11.18;;;9.70;99.90;;;;;;5151364;27;20203;-33
2021/04/20 12:02:05;;;;;;;13.25;11.95;;;9.60;99.90;;;;;;5162006;27;20262;-36
2021/04/20 12:04:39;;;;;;;12.73;11.52;;;9.60;99.90;;;;;;5166502;27;20226;-36
2021/04/20 12:07:10;;;;;;;12.52;11.27;;;9.60;99.90;;;;;;5166834;27;20292;-35
2021/04/20 12:09:41;;;;;;;13.57;12.20;;;9.60;99.90;;;;;;5167837;27;20654;-35
2021/04/20 12:12:13;;;;;;;12.93;11.75;;;9.50;99.90;;;;;;5166699;27;20249;-36
2021/04/20 12:14:44;;;;;;;13.52;12.25;;;9.50;99.90;;;;;;5167843;27;20191;-35
2021/04/20 12:17:26;;;;;;;14.50;13.10;;;9.40;99.90;;;;;;5166582;27;20198;-32
2021/04/20 12:19:59;;;;;;;16.25;13.70;;;9.40;99.90;;;;;;5166202;27;20202;-34
2021/04/20 12:22:30;;;;;;;14.90;13.50;;;9.40;99.90;;;;;;5166646;27;20212;-36
2021/04/20 12:25:01;;;;;;;20.02;13.98;;;9.40;99.90;;;;;;5167746;27;20187;-33
2021/04/20 12:27:32;;;;;;;15.80;13.07;;;9.40;99.90;;;;;;5166801;27;20199;-34
2021/04/20 12:30:04;;;;;;;14.40;13.00;;;9.30;99.90;;;;;;5167084;27;20226;-32
2021/04/20 12:32:45;;;;;;;16.23;14.70;;;9.30;99.90;;;;;;5166397;27;20195;-36
2021/04/20 12:35:16;;;;;;;16.90;15.10;;;9.30;99.90;;;;;;5166853;27;20230;-32
2021/04/20 12:37:47;;;;;;;16.55;15.00;;;9.30;99.90;;;;;;5166801;27;20227;-34
2021/04/20 12:40:22;;;;;;;15.77;14.10;;;9.30;99.90;;;;;;5167075;27;20606;-34
2021/04/20 12:42:59;;;;;;;15.98;14.38;;;9.30;99.90;;;;;;5165606;27;20217;-35
2021/04/20 12:45:32;;;;;;;17.20;14.50;;;9.20;99.90;;;;;;5166888;27;20198;-38
2021/04/20 12:48:04;;;;;;;17.55;15.75;;;9.10;99.90;;;;;;5166416;27;20199;-35
2021/04/20 12:50:40;;;;;;;17.25;15.40;;;9.10;99.90;;;;;;5166416;27;20230;-33
2021/04/20 12:53:11;;;;;;;16.85;15.15;;;9.20;99.90;;;;;;5166107;27;20275;-37
2021/04/20 12:55:43;;;;;;;17.92;16.05;;;9.20;99.90;;;;;;5167581;27;20578;-35
2021/04/20 12:58:17;;;;;;;16.30;14.60;;;9.20;99.90;;;;;;5164877;27;20209;-36
2021/04/20 13:00:50;;;;;;;15.75;14.25;;;9.20;99.90;;;;;;5165958;27;20210;-33
2021/04/20 13:03:25;;;;;;;20.33;16.08;;;9.10;99.90;;;;;;5166442;27;20304;-34
2021/04/20 13:05:56;;;;;;;19.85;14.75;;;9.00;99.90;;;;;;5166715;27;20258;-37
2021/04/20 13:08:28;;;;;;;16.40;14.77;;;9.00;99.90;;;;;;5153417;27;20209;-36
2021/04/20 13:11:00;;;;;;;15.00;13.45;;;9.00;99.90;;;;;;5164023;27;20187;-34
2021/04/20 13:13:32;;;;;;;16.30;14.65;;;8.90;99.90;;;;;;5163179;27;20187;-36
2021/04/20 13:16:04;;;;;;;15.23;13.15;;;8.90;99.90;;;;;;5166373;27;20205;-38
2021/04/20 13:18:37;;;;;;;15.10;13.80;;;8.90;99.90;;;;;;5165727;27;20203;-35
2021/04/20 13:21:08;;;;;;;15.38;13.90;;;8.90;99.90;;;;;;5165271;27;20209;-37
2021/04/20 13:23:40;;;;;;;18.10;15.98;;;8.90;99.90;;;;;;5164900;27;20314;-37